sensor_id;sensor_type;location;lat;lon;timestamp;pressure;altitude;pressure_sealevel;temperature;humidity
23733;BME280;12047;53.450;-2.286;2023-07-13T00:04:13;100946.44;;;19.92;100.00
23733;BME280;12047;53.450;-2.286;2023-07-13T00:09:15;100947.84;;;20.09;100.00
23733;BME280;12047;53.450;-2.286;2023-07-13T00:14:16;100944.72;;;20.33;100.00
23733;BME280;12047;53.450;-2.286;2023-07-13T00:19:17;100939.97;;;20.63;100.00
23733;BME280;12047;53.450;-2.286;2023-07-13T00:24:18;100946.09;;;20.79;100.00
23733;BME280;12047;53.450;-2.286;2023-07-13T00:29:25;100940.25;;;20.75;100.00
23733;BME280;12047;53.450;-2.286;2023-07-13T00:34:26;100955.00;;;20.23;100.00
23733;BME280;12047;53.450;-2.286;2023-07-13T00:39:27;100946.94;;;20.23;100.00
23733;BME280;12047;53.450;-2.286;2023-07-13T00:44:27;100953.28;;;20.16;100.00
23733;BME280;12047;53.450;-2.286;2023-07-13T00:49:30;100951.72;;;19.79;100.00
23733;BME280;12047;53.450;-2.286;2023-07-13T00:54:41;100955.16;;;19.51;100.00
23733;BME280;12047;53.450;-2.286;2023-07-13T00:59:46;100962.00;;;20.18;100.00
23733;BME280;12047;53.450;-2.286;2023-07-13T01:04:47;100949.56;;;20.17;100.00
23733;BME280;12047;53.450;-2.286;2023-07-13T01:09:48;100952.13;;;20.25;100.00
23733;BME280;12047;53.450;-2.286;2023-07-13T01:14:48;100950.69;;;20.29;100.00
23733;BME280;12047;53.450;-2.286;2023-07-13T01:19:49;100953.03;;;19.89;100.00
23733;BME280;12047;53.450;-2.286;2023-07-13T01:24:49;100950.28;;;19.83;100.00
23733;BME280;12047;53.450;-2.286;2023-07-13T01:29:51;100958.97;;;20.06;100.00
23733;BME280;12047;53.450;-2.286;2023-07-13T01:34:53;100955.28;;;19.64;100.00
23733;BME280;12047;53.450;-2.286;2023-07-13T01:39:54;100962.69;;;20.05;100.00
23733;BME280;12047;53.450;-2.286;2023-07-13T01:44:54;100961.75;;;19.91;100.00
23733;BME280;12047;53.450;-2.286;2023-07-13T01:49:55;100970.66;;;19.92;100.00
23733;BME280;12047;53.450;-2.286;2023-07-13T01:54:55;100972.44;;;20.06;100.00
23733;BME280;12047;53.450;-2.286;2023-07-13T01:59:56;100978.19;;;19.60;100.00
23733;BME280;12047;53.450;-2.286;2023-07-13T02:04:57;100974.88;;;19.80;100.00
23733;BME280;12047;53.450;-2.286;2023-07-13T02:09:57;100965.41;;;19.84;100.00
23733;BME280;12047;53.450;-2.286;2023-07-13T02:14:58;100975.84;;;19.93;100.00
23733;BME280;12047;53.450;-2.286;2023-07-13T02:19:58;100974.88;;;20.22;100.00
23733;BME280;12047;53.450;-2.286;2023-07-13T02:24:59;100966.09;;;20.14;100.00
23733;BME280;12047;53.450;-2.286;2023-07-13T02:29:59;100966.03;;;20.07;100.00
23733;BME280;12047;53.450;-2.286;2023-07-13T02:35:00;100959.28;;;20.18;100.00
23733;BME280;12047;53.450;-2.286;2023-07-13T02:40:01;100955.00;;;20.23;100.00
23733;BME280;12047;53.450;-2.286;2023-07-13T02:45:03;100963.53;;;19.84;100.00
23733;BME280;12047;53.450;-2.286;2023-07-13T02:50:04;100959.25;;;19.90;100.00
23733;BME280;12047;53.450;-2.286;2023-07-13T02:55:05;100965.06;;;19.51;100.00
23733;BME280;12047;53.450;-2.286;2023-07-13T03:00:06;100960.69;;;19.50;100.00
23733;BME280;12047;53.450;-2.286;2023-07-13T03:05:07;100955.16;;;19.51;100.00
23733;BME280;12047;53.450;-2.286;2023-07-13T03:10:10;100952.78;;;19.63;100.00
23733;BME280;12047;53.450;-2.286;2023-07-13T03:15:11;100953.84;;;19.47;100.00
23733;BME280;12047;53.450;-2.286;2023-07-13T03:20:11;100954.03;;;19.46;100.00
23733;BME280;12047;53.450;-2.286;2023-07-13T03:25:12;100966.41;;;19.61;100.00
23733;BME280;12047;53.450;-2.286;2023-07-13T03:30:13;100957.00;;;19.51;100.00
23733;BME280;12047;53.450;-2.286;2023-07-13T03:35:13;100961.22;;;19.24;100.00
23733;BME280;12047;53.450;-2.286;2023-07-13T03:40:14;100968.94;;;19.48;100.00
23733;BME280;12047;53.450;-2.286;2023-07-13T03:45:14;100973.56;;;19.03;100.00
23733;BME280;12047;53.450;-2.286;2023-07-13T03:50:15;100967.25;;;19.11;100.00
23733;BME280;12047;53.450;-2.286;2023-07-13T03:55:15;100975.22;;;19.19;100.00
23733;BME280;12047;53.450;-2.286;2023-07-13T04:00:16;100980.41;;;19.21;100.00
23733;BME280;12047;53.450;-2.286;2023-07-13T04:05:16;100992.25;;;18.82;100.00
23733;BME280;12047;53.450;-2.286;2023-07-13T04:10:17;100978.75;;;19.05;100.00
23733;BME280;12047;53.450;-2.286;2023-07-13T04:15:17;100980.50;;;19.13;100.00
23733;BME280;12047;53.450;-2.286;2023-07-13T04:20:18;100990.16;;;18.78;100.00
23733;BME280;12047;53.450;-2.286;2023-07-13T04:25:21;100995.03;;;18.74;100.00
23733;BME280;12047;53.450;-2.286;2023-07-13T04:30:22;101005.81;;;19.03;100.00
23733;BME280;12047;53.450;-2.286;2023-07-13T04:35:22;101006.28;;;18.55;100.00
23733;BME280;12047;53.450;-2.286;2023-07-13T04:40:23;101011.22;;;18.66;100.00
23733;BME280;12047;53.450;-2.286;2023-07-13T04:45:24;101016.59;;;18.66;100.00
23733;BME280;12047;53.450;-2.286;2023-07-13T04:50:25;101014.75;;;18.81;100.00
23733;BME280;12047;53.450;-2.286;2023-07-13T04:55:25;101015.41;;;18.83;100.00
23733;BME280;12047;53.450;-2.286;2023-07-13T05:00:30;101022.00;;;18.58;100.00
23733;BME280;12047;53.450;-2.286;2023-07-13T05:05:31;101032.91;;;18.79;100.00
23733;BME280;12047;53.450;-2.286;2023-07-13T05:10:32;101025.69;;;18.57;100.00
23733;BME280;12047;53.450;-2.286;2023-07-13T05:15:33;101032.56;;;18.22;100.00
23733;BME280;12047;53.450;-2.286;2023-07-13T05:20:34;101033.94;;;18.78;100.00
23733;BME280;12047;53.450;-2.286;2023-07-13T05:25:34;101032.22;;;18.62;100.00
23733;BME280;12047;53.450;-2.286;2023-07-13T05:30:35;101037.72;;;18.84;100.00
23733;BME280;12047;53.450;-2.286;2023-07-13T05:35:36;101053.84;;;19.13;100.00
23733;BME280;12047;53.450;-2.286;2023-07-13T05:40:36;101059.22;;;18.98;100.00
23733;BME280;12047;53.450;-2.286;2023-07-13T05:45:37;101052.63;;;18.86;100.00
23733;BME280;12047;53.450;-2.286;2023-07-13T05:50:38;101064.59;;;18.98;100.00
23733;BME280;12047;53.450;-2.286;2023-07-13T05:55:45;101069.38;;;18.88;100.00
23733;BME280;12047;53.450;-2.286;2023-07-13T06:01:05;101079.31;;;19.17;100.00
23733;BME280;12047;53.450;-2.286;2023-07-13T06:06:09;101079.13;;;19.19;100.00
23733;BME280;12047;53.450;-2.286;2023-07-13T06:11:14;101080.78;;;19.49;100.00
23733;BME280;12047;53.450;-2.286;2023-07-13T06:16:16;101093.31;;;19.42;100.00
23733;BME280;12047;53.450;-2.286;2023-07-13T06:21:22;101093.56;;;19.32;100.00
23733;BME280;12047;53.450;-2.286;2023-07-13T06:26:22;101098.06;;;19.55;100.00
23733;BME280;12047;53.450;-2.286;2023-07-13T06:31:23;101101.66;;;19.47;100.00
23733;BME280;12047;53.450;-2.286;2023-07-13T06:36:23;101101.06;;;19.81;100.00
23733;BME280;12047;53.450;-2.286;2023-07-13T06:41:24;101094.56;;;19.90;100.00
23733;BME280;12047;53.450;-2.286;2023-07-13T06:46:28;101099.03;;;20.04;100.00
23733;BME280;12047;53.450;-2.286;2023-07-13T06:51:29;101106.69;;;20.01;100.00
23733;BME280;12047;53.450;-2.286;2023-07-13T06:56:29;101112.00;;;20.16;100.00
23733;BME280;12047;53.450;-2.286;2023-07-13T07:01:29;101115.41;;;20.03;100.00
23733;BME280;12047;53.450;-2.286;2023-07-13T07:06:31;101118.56;;;19.92;100.00
23733;BME280;12047;53.450;-2.286;2023-07-13T07:11:32;101121.19;;;20.21;100.00
23733;BME280;12047;53.450;-2.286;2023-07-13T07:16:32;101129.34;;;20.28;100.00
23733;BME280;12047;53.450;-2.286;2023-07-13T07:21:33;101123.03;;;20.21;100.00
23733;BME280;12047;53.450;-2.286;2023-07-13T07:26:33;101125.91;;;20.83;100.00
23733;BME280;12047;53.450;-2.286;2023-07-13T07:31:34;101126.91;;;21.31;100.00
23733;BME280;12047;53.450;-2.286;2023-07-13T07:36:34;101127.47;;;21.20;100.00
23733;BME280;12047;53.450;-2.286;2023-07-13T07:41:35;101123.28;;;21.18;100.00
23733;BME280;12047;53.450;-2.286;2023-07-13T07:46:35;101133.59;;;20.86;100.00
23733;BME280;12047;53.450;-2.286;2023-07-13T07:51:36;101136.25;;;21.08;100.00
23733;BME280;12047;53.450;-2.286;2023-07-13T07:56:37;101141.44;;;21.09;100.00
23733;BME280;12047;53.450;-2.286;2023-07-13T08:01:37;101141.84;;;20.57;100.00
23733;BME280;12047;53.450;-2.286;2023-07-13T08:06:38;101140.56;;;20.74;100.00
23733;BME280;12047;53.450;-2.286;2023-07-13T08:11:38;101147.84;;;21.29;100.00
23733;BME280;12047;53.450;-2.286;2023-07-13T08:16:39;101153.94;;;21.86;100.00
23733;BME280;12047;53.450;-2.286;2023-07-13T08:21:39;101149.00;;;21.48;100.00
23733;BME280;12047;53.450;-2.286;2023-07-13T08:26:40;101157.44;;;21.80;100.00
23733;BME280;12047;53.450;-2.286;2023-07-13T08:31:40;101152.50;;;21.42;100.00
23733;BME280;12047;53.450;-2.286;2023-07-13T08:36:41;101161.16;;;22.13;100.00
23733;BME280;12047;53.450;-2.286;2023-07-13T08:41:45;101147.56;;;22.74;100.00
23733;BME280;12047;53.450;-2.286;2023-07-13T08:46:47;101143.19;;;23.06;100.00
23733;BME280;12047;53.450;-2.286;2023-07-13T08:52:07;101142.56;;;22.51;100.00
23733;BME280;12047;53.450;-2.286;2023-07-13T08:57:15;101146.53;;;23.01;100.00
23733;BME280;12047;53.450;-2.286;2023-07-13T09:13:28;101157.34;;;22.82;100.00
23733;BME280;12047;53.450;-2.286;2023-07-13T09:18:35;101165.19;;;22.50;100.00
23733;BME280;12047;53.450;-2.286;2023-07-13T09:23:38;101162.75;;;22.82;100.00
23733;BME280;12047;53.450;-2.286;2023-07-13T09:28:43;101160.38;;;23.64;100.00
23733;BME280;12047;53.450;-2.286;2023-07-13T09:33:44;101162.75;;;23.08;100.00
23733;BME280;12047;53.450;-2.286;2023-07-13T09:38:48;101161.47;;;22.71;100.00
23733;BME280;12047;53.450;-2.286;2023-07-13T09:49:12;101173.91;;;22.59;100.00
23733;BME280;12047;53.450;-2.286;2023-07-13T09:54:20;101169.41;;;23.05;100.00
23733;BME280;12047;53.450;-2.286;2023-07-13T09:59:26;101168.25;;;24.30;100.00
23733;BME280;12047;53.450;-2.286;2023-07-13T10:04:34;101177.31;;;24.49;100.00
23733;BME280;12047;53.450;-2.286;2023-07-13T10:09:34;101175.97;;;24.20;100.00
23733;BME280;12047;53.450;-2.286;2023-07-13T10:14:34;101183.28;;;23.55;100.00
23733;BME280;12047;53.450;-2.286;2023-07-13T10:19:35;101188.69;;;23.68;100.00
23733;BME280;12047;53.450;-2.286;2023-07-13T10:24:37;101191.13;;;23.83;100.00
23733;BME280;12047;53.450;-2.286;2023-07-13T10:29:52;101192.47;;;23.28;100.00
23733;BME280;12047;53.450;-2.286;2023-07-13T10:34:53;101189.09;;;23.72;100.00
23733;BME280;12047;53.450;-2.286;2023-07-13T10:39:57;101191.09;;;23.96;100.00
23733;BME280;12047;53.450;-2.286;2023-07-13T10:44:59;101177.41;;;25.42;100.00
23733;BME280;12047;53.450;-2.286;2023-07-13T10:50:00;101183.78;;;26.39;97.36
23733;BME280;12047;53.450;-2.286;2023-07-13T10:55:02;101174.06;;;26.73;92.13
23733;BME280;12047;53.450;-2.286;2023-07-13T11:05:40;101182.66;;;25.37;94.19
23733;BME280;12047;53.450;-2.286;2023-07-13T11:15:48;101175.22;;;25.07;94.45
23733;BME280;12047;53.450;-2.286;2023-07-13T11:20:49;101171.59;;;25.38;94.74
23733;BME280;12047;53.450;-2.286;2023-07-13T11:25:49;101180.28;;;24.72;96.18
23733;BME280;12047;53.450;-2.286;2023-07-13T11:36:00;101180.34;;;25.59;89.70
23733;BME280;12047;53.450;-2.286;2023-07-13T11:41:05;101176.41;;;25.36;91.83
23733;BME280;12047;53.450;-2.286;2023-07-13T11:46:20;101168.59;;;25.47;95.01
23733;BME280;12047;53.450;-2.286;2023-07-13T11:51:26;101164.81;;;25.04;91.29
23733;BME280;12047;53.450;-2.286;2023-07-13T11:56:28;101157.06;;;25.08;93.16
23733;BME280;12047;53.450;-2.286;2023-07-13T12:01:31;101155.13;;;24.59;93.68
23733;BME280;12047;53.450;-2.286;2023-07-13T12:06:34;101151.94;;;25.43;93.67
23733;BME280;12047;53.450;-2.286;2023-07-13T12:11:36;101158.59;;;24.72;92.44
23733;BME280;12047;53.450;-2.286;2023-07-13T12:16:38;101156.09;;;24.71;91.76
23733;BME280;12047;53.450;-2.286;2023-07-13T12:21:39;101147.28;;;25.25;92.43
23733;BME280;12047;53.450;-2.286;2023-07-13T12:26:39;101152.44;;;24.21;98.41
23733;BME280;12047;53.450;-2.286;2023-07-13T12:31:43;101149.41;;;24.49;100.00
23733;BME280;12047;53.450;-2.286;2023-07-13T12:37:03;101146.03;;;24.78;100.00
23733;BME280;12047;53.450;-2.286;2023-07-13T12:42:24;101139.84;;;25.21;97.27
23733;BME280;12047;53.450;-2.286;2023-07-13T12:47:29;101131.22;;;25.05;98.99
23733;BME280;12047;53.450;-2.286;2023-07-13T12:52:34;101131.38;;;24.61;100.00
23733;BME280;12047;53.450;-2.286;2023-07-13T12:57:55;101147.63;;;24.61;100.00
23733;BME280;12047;53.450;-2.286;2023-07-13T13:02:57;101146.19;;;24.27;100.00
23733;BME280;12047;53.450;-2.286;2023-07-13T13:07:58;101140.44;;;23.46;100.00
23733;BME280;12047;53.450;-2.286;2023-07-13T13:12:58;101154.22;;;23.18;100.00
23733;BME280;12047;53.450;-2.286;2023-07-13T13:17:59;101153.53;;;23.55;100.00
23733;BME280;12047;53.450;-2.286;2023-07-13T13:22:59;101159.38;;;24.03;100.00
23733;BME280;12047;53.450;-2.286;2023-07-13T13:28:00;101156.25;;;24.06;100.00
23733;BME280;12047;53.450;-2.286;2023-07-13T13:33:00;101153.22;;;24.66;100.00
23733;BME280;12047;53.450;-2.286;2023-07-13T13:38:01;101148.47;;;24.61;100.00
23733;BME280;12047;53.450;-2.286;2023-07-13T13:43:01;101148.00;;;25.57;100.00
23733;BME280;12047;53.450;-2.286;2023-07-13T13:48:02;101147.41;;;25.55;100.00
23733;BME280;12047;53.450;-2.286;2023-07-13T13:53:02;101146.06;;;25.03;100.00
23733;BME280;12047;53.450;-2.286;2023-07-13T13:58:04;101140.56;;;25.89;100.00
23733;BME280;12047;53.450;-2.286;2023-07-13T14:03:05;101130.09;;;24.63;100.00
23733;BME280;12047;53.450;-2.286;2023-07-13T14:08:13;101136.69;;;25.42;100.00
23733;BME280;12047;53.450;-2.286;2023-07-13T14:13:21;101137.03;;;25.09;100.00
23733;BME280;12047;53.450;-2.286;2023-07-13T14:18:23;101140.97;;;25.31;100.00
23733;BME280;12047;53.450;-2.286;2023-07-13T14:23:24;101137.44;;;25.31;100.00
23733;BME280;12047;53.450;-2.286;2023-07-13T14:28:26;101139.41;;;25.24;100.00
23733;BME280;12047;53.450;-2.286;2023-07-13T14:33:27;101126.84;;;25.66;100.00
23733;BME280;12047;53.450;-2.286;2023-07-13T14:38:29;101132.94;;;26.81;100.00
23733;BME280;12047;53.450;-2.286;2023-07-13T14:43:29;101123.34;;;26.67;99.51
23733;BME280;12047;53.450;-2.286;2023-07-13T14:48:30;101126.34;;;25.14;100.00
23733;BME280;12047;53.450;-2.286;2023-07-13T14:53:30;101121.13;;;26.04;97.85
23733;BME280;12047;53.450;-2.286;2023-07-13T14:58:31;101125.34;;;26.18;95.98
23733;BME280;12047;53.450;-2.286;2023-07-13T15:03:32;101130.53;;;26.20;100.00
23733;BME280;12047;53.450;-2.286;2023-07-13T15:08:33;101131.44;;;25.84;100.00
23733;BME280;12047;53.450;-2.286;2023-07-13T15:13:34;101120.13;;;26.17;98.69
23733;BME280;12047;53.450;-2.286;2023-07-13T15:18:41;101111.47;;;26.08;99.63
23733;BME280;12047;53.450;-2.286;2023-07-13T15:23:47;101119.22;;;25.93;100.00
23733;BME280;12047;53.450;-2.286;2023-07-13T15:28:47;101111.22;;;25.98;96.31
23733;BME280;12047;53.450;-2.286;2023-07-13T15:33:52;101114.84;;;25.55;100.00
23733;BME280;12047;53.450;-2.286;2023-07-13T15:38:54;101117.50;;;26.10;98.82
23733;BME280;12047;53.450;-2.286;2023-07-13T15:43:57;101116.66;;;25.43;100.00
23733;BME280;12047;53.450;-2.286;2023-07-13T15:48:58;101116.72;;;25.55;100.00
23733;BME280;12047;53.450;-2.286;2023-07-13T15:54:01;101116.56;;;25.31;100.00
23733;BME280;12047;53.450;-2.286;2023-07-13T15:59:12;101124.47;;;24.65;100.00
23733;BME280;12047;53.450;-2.286;2023-07-13T16:04:18;101120.78;;;25.27;100.00
23733;BME280;12047;53.450;-2.286;2023-07-13T16:09:21;101118.94;;;25.46;100.00
23733;BME280;12047;53.450;-2.286;2023-07-13T16:14:22;101113.47;;;25.28;98.65
23733;BME280;12047;53.450;-2.286;2023-07-13T16:19:24;101111.94;;;24.95;100.00
23733;BME280;12047;53.450;-2.286;2023-07-13T16:24:29;101115.50;;;25.14;100.00
23733;BME280;12047;53.450;-2.286;2023-07-13T16:29:31;101119.81;;;25.76;100.00
23733;BME280;12047;53.450;-2.286;2023-07-13T16:34:33;101119.47;;;25.73;100.00
23733;BME280;12047;53.450;-2.286;2023-07-13T16:39:34;101119.22;;;25.20;100.00
23733;BME280;12047;53.450;-2.286;2023-07-13T16:44:34;101120.03;;;25.57;99.19
23733;BME280;12047;53.450;-2.286;2023-07-13T16:49:37;101122.88;;;25.25;100.00
23733;BME280;12047;53.450;-2.286;2023-07-13T16:54:38;101134.81;;;24.99;100.00
23733;BME280;12047;53.450;-2.286;2023-07-13T16:59:39;101124.88;;;25.36;100.00
23733;BME280;12047;53.450;-2.286;2023-07-13T17:04:40;101134.59;;;25.44;100.00
23733;BME280;12047;53.450;-2.286;2023-07-13T17:09:41;101130.78;;;24.52;100.00
23733;BME280;12047;53.450;-2.286;2023-07-13T17:14:46;101129.06;;;24.33;100.00
23733;BME280;12047;53.450;-2.286;2023-07-13T17:19:50;101136.13;;;24.90;100.00
23733;BME280;12047;53.450;-2.286;2023-07-13T17:24:52;101141.66;;;24.77;100.00
23733;BME280;12047;53.450;-2.286;2023-07-13T17:29:52;101145.41;;;24.13;100.00
23733;BME280;12047;53.450;-2.286;2023-07-13T17:34:54;101149.22;;;23.99;100.00
23733;BME280;12047;53.450;-2.286;2023-07-13T17:39:55;101140.09;;;24.31;100.00
23733;BME280;12047;53.450;-2.286;2023-07-13T17:44:55;101138.63;;;24.35;100.00
23733;BME280;12047;53.450;-2.286;2023-07-13T17:49:55;101135.63;;;24.12;100.00
23733;BME280;12047;53.450;-2.286;2023-07-13T17:54:59;101133.47;;;23.83;100.00
23733;BME280;12047;53.450;-2.286;2023-07-13T18:00:02;101140.19;;;23.73;100.00
23733;BME280;12047;53.450;-2.286;2023-07-13T18:05:17;101139.59;;;23.58;100.00
23733;BME280;12047;53.450;-2.286;2023-07-13T18:10:20;101149.75;;;23.69;100.00
23733;BME280;12047;53.450;-2.286;2023-07-13T18:15:25;101144.78;;;23.60;100.00
23733;BME280;12047;53.450;-2.286;2023-07-13T18:20:27;101151.06;;;24.05;100.00
23733;BME280;12047;53.450;-2.286;2023-07-13T18:25:28;101149.28;;;23.79;100.00
23733;BME280;12047;53.450;-2.286;2023-07-13T18:30:29;101148.97;;;23.36;100.00
23733;BME280;12047;53.450;-2.286;2023-07-13T18:35:32;101138.97;;;23.56;100.00
23733;BME280;12047;53.450;-2.286;2023-07-13T18:40:33;101148.59;;;23.13;100.00
23733;BME280;12047;53.450;-2.286;2023-07-13T18:45:34;101147.97;;;23.24;100.00
23733;BME280;12047;53.450;-2.286;2023-07-13T18:50:34;101154.44;;;23.23;100.00
23733;BME280;12047;53.450;-2.286;2023-07-13T18:55:44;101159.63;;;23.24;100.00
23733;BME280;12047;53.450;-2.286;2023-07-13T19:00:45;101164.81;;;23.06;100.00
23733;BME280;12047;53.450;-2.286;2023-07-13T19:05:48;101163.34;;;22.64;100.00
23733;BME280;12047;53.450;-2.286;2023-07-13T19:10:51;101164.16;;;22.64;100.00
23733;BME280;12047;53.450;-2.286;2023-07-13T19:16:01;101167.75;;;22.91;100.00
23733;BME280;12047;53.450;-2.286;2023-07-13T19:21:07;101166.28;;;22.82;100.00
23733;BME280;12047;53.450;-2.286;2023-07-13T19:26:32;101166.47;;;22.74;100.00
23733;BME280;12047;53.450;-2.286;2023-07-13T19:31:35;101173.78;;;23.00;100.00
23733;BME280;12047;53.450;-2.286;2023-07-13T19:36:37;101180.81;;;22.74;100.00
23733;BME280;12047;53.450;-2.286;2023-07-13T19:41:39;101176.06;;;22.83;100.00
23733;BME280;12047;53.450;-2.286;2023-07-13T19:46:39;101184.75;;;22.65;100.00
23733;BME280;12047;53.450;-2.286;2023-07-13T19:51:40;101178.06;;;22.61;100.00
23733;BME280;12047;53.450;-2.286;2023-07-13T19:56:41;101177.06;;;22.69;100.00
23733;BME280;12047;53.450;-2.286;2023-07-13T20:01:41;101172.88;;;22.53;100.00
23733;BME280;12047;53.450;-2.286;2023-07-13T20:06:42;101172.50;;;22.76;100.00
23733;BME280;12047;53.450;-2.286;2023-07-13T20:11:44;101173.53;;;22.75;100.00
23733;BME280;12047;53.450;-2.286;2023-07-13T20:16:45;101171.69;;;22.89;100.00
23733;BME280;12047;53.450;-2.286;2023-07-13T20:21:46;101178.91;;;22.62;100.00
23733;BME280;12047;53.450;-2.286;2023-07-13T20:26:47;101176.84;;;22.64;100.00
23733;BME280;12047;53.450;-2.286;2023-07-13T20:31:48;101173.47;;;22.35;100.00
23733;BME280;12047;53.450;-2.286;2023-07-13T20:36:49;101169.97;;;22.61;100.00
23733;BME280;12047;53.450;-2.286;2023-07-13T20:41:51;101168.53;;;22.72;100.00
23733;BME280;12047;53.450;-2.286;2023-07-13T20:46:54;101168.22;;;22.14;100.00
23733;BME280;12047;53.450;-2.286;2023-07-13T20:51:55;101175.81;;;22.65;100.00
23733;BME280;12047;53.450;-2.286;2023-07-13T20:56:58;101179.66;;;22.29;100.00
23733;BME280;12047;53.450;-2.286;2023-07-13T21:01:58;101179.41;;;22.11;100.00
23733;BME280;12047;53.450;-2.286;2023-07-13T21:06:59;101169.94;;;22.42;100.00
23733;BME280;12047;53.450;-2.286;2023-07-13T21:11:59;101174.03;;;22.18;100.00
23733;BME280;12047;53.450;-2.286;2023-07-13T21:17:00;101171.34;;;22.18;100.00
23733;BME280;12047;53.450;-2.286;2023-07-13T21:22:00;101170.09;;;22.20;100.00
23733;BME280;12047;53.450;-2.286;2023-07-13T21:27:01;101167.56;;;22.12;100.00
23733;BME280;12047;53.450;-2.286;2023-07-13T21:32:03;101155.09;;;22.04;100.00
23733;BME280;12047;53.450;-2.286;2023-07-13T21:37:04;101157.19;;;22.09;100.00
23733;BME280;12047;53.450;-2.286;2023-07-13T21:42:05;101159.66;;;22.04;100.00
23733;BME280;12047;53.450;-2.286;2023-07-13T21:47:07;101172.91;;;21.99;100.00
23733;BME280;12047;53.450;-2.286;2023-07-13T21:52:18;101165.78;;;21.85;100.00
23733;BME280;12047;53.450;-2.286;2023-07-13T21:57:18;101172.28;;;21.97;100.00
23733;BME280;12047;53.450;-2.286;2023-07-13T22:02:20;101171.41;;;21.90;100.00
23733;BME280;12047;53.450;-2.286;2023-07-13T22:07:20;101177.66;;;21.97;100.00
23733;BME280;12047;53.450;-2.286;2023-07-13T22:12:21;101171.25;;;21.98;100.00
23733;BME280;12047;53.450;-2.286;2023-07-13T22:17:22;101166.78;;;21.77;100.00
23733;BME280;12047;53.450;-2.286;2023-07-13T22:22:25;101155.34;;;21.68;100.00
23733;BME280;12047;53.450;-2.286;2023-07-13T22:27:27;101165.53;;;21.38;100.00
23733;BME280;12047;53.450;-2.286;2023-07-13T22:32:29;101162.25;;;21.43;100.00
23733;BME280;12047;53.450;-2.286;2023-07-13T22:37:29;101158.38;;;21.59;100.00
23733;BME280;12047;53.450;-2.286;2023-07-13T22:42:30;101165.63;;;21.58;100.00
23733;BME280;12047;53.450;-2.286;2023-07-13T22:47:30;101154.53;;;21.75;100.00
23733;BME280;12047;53.450;-2.286;2023-07-13T22:52:31;101165.72;;;21.78;100.00
23733;BME280;12047;53.450;-2.286;2023-07-13T22:57:35;101156.56;;;21.31;100.00
23733;BME280;12047;53.450;-2.286;2023-07-13T23:02:36;101153.97;;;21.45;100.00
23733;BME280;12047;53.450;-2.286;2023-07-13T23:07:36;101153.75;;;21.46;100.00
23733;BME280;12047;53.450;-2.286;2023-07-13T23:12:38;101136.66;;;21.67;100.00
23733;BME280;12047;53.450;-2.286;2023-07-13T23:17:39;101126.44;;;21.21;100.00
23733;BME280;12047;53.450;-2.286;2023-07-13T23:22:40;101125.59;;;21.55;100.00
23733;BME280;12047;53.450;-2.286;2023-07-13T23:27:41;101129.41;;;21.33;100.00
23733;BME280;12047;53.450;-2.286;2023-07-13T23:32:46;101124.94;;;21.19;100.00
23733;BME280;12047;53.450;-2.286;2023-07-13T23:37:49;101123.72;;;20.93;100.00
23733;BME280;12047;53.450;-2.286;2023-07-13T23:42:50;101117.25;;;20.88;100.00
23733;BME280;12047;53.450;-2.286;2023-07-13T23:47:53;101121.47;;;20.69;100.00
23733;BME280;12047;53.450;-2.286;2023-07-13T23:52:54;101116.47;;;20.94;100.00
23733;BME280;12047;53.450;-2.286;2023-07-13T23:58:02;101105.50;;;20.67;100.00
